Time;durP1;ratioP1;P1;durP2;ratioP2;P2;SDS_P1;SDS_P2;PMS_P1;PMS_P2;Temp;Humidity;BMP_temperature;BMP_pressure;BME280_temperature;BME280_humidity;BME280_pressure;Samples;Min_cycle;Max_cycle;Signal;HPM_P1;HPM_P2
2023/10/13 00:02:13;;;;;;;2.53;0.57;;;23.80;36.30;;;;;;5093986;28;20183;-71
2023/10/13 00:04:42;;;;;;;3.60;0.53;;;24.30;36.40;;;;;;5094136;28;20258;-73
2023/10/13 00:07:11;;;;;;;1.43;0.33;;;24.80;34.50;;;;;;5093823;28;20213;-72
2023/10/13 00:09:39;;;;;;;0.80;0.60;;;25.20;35.90;;;;;;5093528;28;20194;-72
2023/10/13 00:12:23;;;;;;;0.77;0.47;;;25.10;31.10;;;;;;5093955;28;20212;-72
2023/10/13 00:14:50;;;;;;;1.27;0.50;;;24.90;29.20;;;;;;5093499;28;20637;-72
2023/10/13 00:17:24;;;;;;;0.30;0.30;;;24.50;29.20;;;;;;5093392;28;20182;-72
2023/10/13 00:19:52;;;;;;;0.50;0.50;;;24.40;28.80;;;;;;5093224;28;20171;-72
2023/10/13 00:22:22;;;;;;;0.40;0.40;;;25.10;29.40;;;;;;5083902;28;20203;-72
2023/10/13 00:24:51;;;;;;;1.50;0.50;;;25.30;29.40;;;;;;5091371;28;20258;-71
2023/10/13 00:27:30;;;;;;;3.50;0.50;;;25.50;27.40;;;;;;5091970;28;20246;-72
2023/10/13 00:30:33;;;;;;;4.50;0.50;;;25.20;27.00;;;;;;5091061;28;20254;-73
2023/10/13 00:32:56;;;;;;;0.67;0.43;;;25.60;29.50;;;;;;5091363;28;20195;-72
2023/10/13 00:35:25;;;;;;;0.57;0.30;;;25.20;26.90;;;;;;5091711;28;20175;-72
2023/10/13 00:37:57;;;;;;;2.73;0.40;;;25.00;28.10;;;;;;5091518;28;20178;-72
2023/10/13 00:45:57;;;;;;;6.43;0.60;;;25.10;20.60;;;;;;5090678;28;20570;-71
2023/10/13 00:48:42;;;;;;;1.37;0.40;;;24.90;19.30;;;;;;5080786;28;20215;-71
2023/10/13 00:53:58;;;;;;;1.43;0.47;;;25.50;19.80;;;;;;5091452;28;20709;-72
2023/10/13 00:56:27;;;;;;;3.13;0.50;;;25.60;18.10;;;;;;5091541;28;20217;-72
2023/10/13 00:58:57;;;;;;;2.03;0.60;;;25.10;16.00;;;;;;5089587;28;20224;-72
2023/10/13 01:01:29;;;;;;;0.77;0.43;;;25.60;19.50;;;;;;5091851;28;20248;-73
2023/10/13 01:04:02;;;;;;;1.83;0.53;;;25.50;16.80;;;;;;5080422;28;20236;-71
2023/10/13 01:06:30;;;;;;;1.40;0.40;;;26.50;15.90;;;;;;5091425;28;20183;-72
2023/10/13 01:09:18;;;;;;;1.60;0.40;;;26.20;11.30;;;;;;5089724;28;20214;-71
2023/10/13 01:11:48;;;;;;;2.00;0.57;;;25.50;12.50;;;;;;5091616;28;20183;-72
2023/10/13 01:14:17;;;;;;;1.07;0.40;;;25.90;10.30;;;;;;5091093;28;20206;-73
2023/10/13 01:16:45;;;;;;;1.23;0.50;;;26.40;11.10;;;;;;5091335;28;20321;-72
2023/10/13 01:19:19;;;;;;;1.47;0.40;;;26.70;10.40;;;;;;5091328;28;20187;-72
2023/10/13 01:21:49;;;;;;;2.47;0.40;;;26.40;9.40;;;;;;5090941;28;20268;-70
2023/10/13 01:24:19;;;;;;;0.87;0.40;;;26.90;10.70;;;;;;5092440;28;20183;-69
2023/10/13 01:26:51;;;;;;;1.00;0.60;;;26.70;8.90;;;;;;5085442;28;20583;-69
2023/10/13 01:29:19;;;;;;;0.60;0.47;;;26.30;7.40;;;;;;5081574;28;20214;-71
2023/10/13 01:31:47;;;;;;;1.07;0.47;;;26.30;8.30;;;;;;5094816;28;20534;-72
2023/10/13 01:34:25;;;;;;;1.97;0.90;;;26.80;8.50;;;;;;5095359;28;20266;-71
2023/10/13 01:36:56;;;;;;;4.00;0.50;;;27.20;8.80;;;;;;5094229;28;20197;-72
2023/10/13 01:39:28;;;;;;;1.07;0.50;;;27.60;8.80;;;;;;5096503;28;20570;-73
2023/10/13 01:41:56;;;;;;;0.80;0.40;;;28.30;6.50;;;;;;5095858;28;20186;-72
2023/10/13 01:44:30;;;;;;;2.50;0.60;;;28.10;10.60;;;;;;5095854;28;20581;-68
2023/10/13 01:47:08;;;;;;;2.83;0.30;;;28.30;9.70;;;;;;5096818;28;20266;-73
2023/10/13 01:49:42;;;;;;;0.83;0.53;;;27.70;6.50;;;;;;5096623;28;20183;-68
2023/10/13 01:52:15;;;;;;;0.97;0.40;;;26.90;4.50;;;;;;5096624;28;20174;-70
2023/10/13 01:54:48;;;;;;;1.57;0.30;;;27.10;6.70;;;;;;5079383;28;20595;-70
2023/10/13 01:57:19;;;;;;;0.90;0.40;;;27.70;5.50;;;;;;5095362;28;20180;-68
2023/10/13 01:59:50;;;;;;;0.73;0.33;;;27.70;10.20;;;;;;5096621;28;20229;-73
2023/10/13 02:02:30;;;;;;;0.53;0.50;;;27.40;12.90;;;;;;5096448;28;20269;-69
2023/10/13 02:05:02;;;;;;;2.30;0.87;;;27.00;10.00;;;;;;5096492;28;20515;-70
2023/10/13 02:07:34;;;;;;;0.87;0.30;;;27.00;9.00;;;;;;5096338;28;20203;-72
2023/10/13 02:10:12;;;;;;;0.77;0.33;;;26.80;6.10;;;;;;5095044;28;20625;-73
2023/10/13 02:12:42;;;;;;;0.43;0.40;;;27.30;7.20;;;;;;5096297;28;20229;-71
2023/10/13 02:15:26;;;;;;;2.37;0.67;;;27.60;8.40;;;;;;5096740;28;20684;-72
2023/10/13 02:17:54;;;;;;;1.20;0.33;;;27.20;5.10;;;;;;5095050;28;20568;-72
2023/10/13 02:20:30;;;;;;;0.57;0.37;;;27.10;7.40;;;;;;5096054;28;20167;-73
2023/10/13 02:22:58;;;;;;;1.60;0.57;;;26.70;5.30;;;;;;5096032;28;20217;-72
2023/10/13 02:28:28;;;;;;;4.23;0.60;;;27.10;6.40;;;;;;5093764;28;20211;-70
2023/10/13 02:30:57;;;;;;;1.00;0.40;;;27.00;5.20;;;;;;5095964;28;20207;-70
2023/10/13 02:33:34;;;;;;;0.80;0.40;;;27.10;7.50;;;;;;5096020;28;20178;-70
2023/10/13 02:36:05;;;;;;;1.33;0.50;;;26.90;7.20;;;;;;5095952;28;20206;-70
2023/10/13 02:41:07;;;;;;;0.67;0.40;;;27.10;7.10;;;;;;5095123;28;20209;-68
2023/10/13 02:43:36;;;;;;;3.73;0.50;;;27.50;5.30;;;;;;5095596;28;20183;-68
2023/10/13 02:46:05;;;;;;;1.37;0.30;;;27.30;5.40;;;;;;5095569;28;20167;-69
2023/10/13 02:48:45;;;;;;;0.53;0.30;;;26.80;4.30;;;;;;5095262;28;20221;-68
2023/10/13 02:51:25;;;;;;;1.40;0.40;;;26.50;4.10;;;;;;5095416;28;20167;-68
2023/10/13 02:53:52;;;;;;;1.23;0.50;;;26.70;4.10;;;;;;5095612;28;20572;-68
2023/10/13 02:56:20;;;;;;;0.97;0.30;;;27.00;3.20;;;;;;5095445;28;20183;-69
2023/10/13 02:59:05;;;;;;;0.40;0.30;;;27.00;6.20;;;;;;5095379;28;20183;-69
2023/10/13 03:01:36;;;;;;;1.23;0.43;;;27.10;3.30;;;;;;5095457;28;20182;-69
2023/10/13 03:04:09;;;;;;;0.70;0.37;;;27.20;4.50;;;;;;5095374;28;20290;-69
2023/10/13 03:06:40;;;;;;;1.17;0.50;;;27.10;5.70;;;;;;5095314;28;20220;-69
2023/10/13 03:09:21;;;;;;;0.60;0.50;;;27.10;6.70;;;;;;5094924;28;20259;-70
2023/10/13 03:11:50;;;;;;;0.80;0.60;;;27.20;7.30;;;;;;5095192;28;20176;-70
2023/10/13 03:14:31;;;;;;;0.50;0.40;;;27.10;8.70;;;;;;5095477;28;20183;-71
2023/10/13 03:17:14;;;;;;;1.43;0.40;;;27.30;5.00;;;;;;5095035;28;20214;-71
2023/10/13 03:19:54;;;;;;;0.70;0.50;;;27.10;6.10;;;;;;5093749;28;20206;-71
2023/10/13 03:22:30;;;;;;;1.47;0.40;;;27.10;5.40;;;;;;5095089;28;20220;-73
2023/10/13 03:25:06;;;;;;;1.23;0.50;;;26.90;4.90;;;;;;5094613;28;20226;-71
2023/10/13 03:30:30;;;;;;;0.67;0.50;;;27.20;5.20;;;;;;5094767;28;20245;-68
2023/10/13 03:32:57;;;;;;;1.07;0.60;;;27.40;7.80;;;;;;5094690;28;20179;-71
2023/10/13 03:35:27;;;;;;;1.07;0.50;;;27.40;6.60;;;;;;5093513;28;20549;-71
2023/10/13 03:37:56;;;;;;;2.07;0.60;;;27.20;4.50;;;;;;5094492;28;20563;-73
2023/10/13 03:43:12;;;;;;;0.37;0.30;;;27.30;5.80;;;;;;5094719;28;20696;-74
2023/10/13 03:45:47;;;;;;;1.03;0.50;;;27.20;7.30;;;;;;5093006;28;20225;-69
2023/10/13 03:53:53;;;;;;;0.30;0.30;;;27.00;5.60;;;;;;5092463;28;20187;-68
2023/10/13 03:56:38;;;;;;;0.83;0.73;;;26.80;5.50;;;;;;5091457;28;20652;-69
2023/10/13 03:59:10;;;;;;;1.10;0.50;;;27.30;6.30;;;;;;5091873;28;20190;-69
2023/10/13 04:04:14;;;;;;;3.63;0.53;;;27.50;7.60;;;;;;5072182;28;20229;-70
2023/10/13 04:17:43;;;;;;;0.60;0.40;;;27.30;7.10;;;;;;5092095;28;20199;-70
2023/10/13 04:36:22;;;;;;;1.37;0.60;;;27.10;6.80;;;;;;5088647;28;20191;-71
2023/10/13 04:41:57;;;;;;;1.90;0.60;;;27.20;8.70;;;;;;5084965;28;20316;-71
2023/10/13 04:47:09;;;;;;;0.97;0.50;;;27.10;3.90;;;;;;5091720;28;20190;-71
2023/10/13 04:54:53;;;;;;;0.80;0.40;;;26.80;4.60;;;;;;5091641;28;20171;-70
2023/10/13 04:57:46;;;;;;;1.13;0.40;;;26.80;4.90;;;;;;5092068;28;20265;-70
2023/10/13 05:44:37;;;;;;;1.40;0.83;;;25.70;9.50;;;;;;5089549;28;20209;-69
2023/10/13 05:50:04;;;;;;;0.60;0.40;;;25.70;10.70;;;;;;5091578;28;20194;-69
2023/10/13 06:28:41;;;;;;;3.40;0.80;;;25.20;15.40;;;;;;5095813;28;20221;-69
2023/10/13 06:31:23;;;;;;;1.20;0.50;;;25.20;16.40;;;;;;5095790;28;20171;-68
2023/10/13 06:33:51;;;;;;;1.40;0.53;;;25.40;17.10;;;;;;5096174;28;20171;-69
2023/10/13 06:36:22;;;;;;;1.27;1.00;;;25.60;17.00;;;;;;5095806;28;20628;-69
2023/10/13 06:39:34;;;;;;;4.37;0.90;;;25.50;16.90;;;;;;5095768;28;20188;-69
2023/10/13 06:41:40;;;;;;;1.23;0.80;;;25.40;17.40;;;;;;5095557;28;20207;-70
2023/10/13 06:44:14;;;;;;;2.03;0.70;;;25.40;17.50;;;;;;5095763;28;20190;-70
2023/10/13 06:46:43;;;;;;;1.10;0.43;;;24.80;17.30;;;;;;5094619;28;20174;-70
2023/10/13 06:49:13;;;;;;;0.73;0.67;;;24.60;18.10;;;;;;5093100;28;20751;-70
2023/10/13 06:51:40;;;;;;;1.73;0.73;;;24.50;18.90;;;;;;5094264;28;20187;-69
2023/10/13 06:54:19;;;;;;;1.77;0.60;;;24.60;19.00;;;;;;5056452;28;20221;-70
2023/10/13 06:56:52;;;;;;;2.53;0.60;;;24.50;18.50;;;;;;5093647;28;20174;-70
2023/10/13 06:59:19;;;;;;;1.37;0.80;;;24.30;18.60;;;;;;5093470;28;20218;-70
2023/10/13 07:01:52;;;;;;;1.00;0.60;;;24.20;18.60;;;;;;5093220;28;20179;-70
2023/10/13 07:04:21;;;;;;;1.43;0.60;;;23.90;19.00;;;;;;5093510;28;20628;-70
2023/10/13 07:06:49;;;;;;;1.60;0.57;;;23.60;20.00;;;;;;5093429;28;20187;-71
2023/10/13 07:12:16;;;;;;;1.57;0.60;;;23.50;20.90;;;;;;5092669;28;20283;-71
2023/10/13 07:14:51;;;;;;;2.33;0.77;;;23.40;21.30;;;;;;5092432;28;20937;-71
2023/10/13 07:17:33;;;;;;;2.70;1.00;;;23.30;22.10;;;;;;5092761;28;20288;-70
2023/10/13 07:20:13;;;;;;;0.37;0.37;;;23.30;22.90;;;;;;5082703;28;20652;-70
2023/10/13 07:22:54;;;;;;;2.83;0.67;;;23.40;22.90;;;;;;5072648;28;20389;-70
2023/10/13 07:25:26;;;;;;;0.93;0.60;;;23.60;24.50;;;;;;5072105;28;20224;-70
2023/10/13 07:27:54;;;;;;;3.03;2.10;;;23.70;23.40;;;;;;5088083;28;20196;-70
2023/10/13 07:30:26;;;;;;;2.80;0.97;;;23.60;24.00;;;;;;5072294;28;20179;-70
2023/10/13 07:32:59;;;;;;;4.60;0.70;;;23.50;25.10;;;;;;5073108;28;20211;-69
2023/10/13 07:35:30;;;;;;;0.80;0.63;;;23.40;25.60;;;;;;5074821;28;20183;-70
2023/10/13 07:37:59;;;;;;;1.30;0.50;;;23.30;26.50;;;;;;5092640;28;20184;-70
2023/10/13 07:43:09;;;;;;;1.53;0.70;;;22.80;26.70;;;;;;5092954;28;20184;-70
2023/10/13 07:45:41;;;;;;;3.40;0.60;;;22.50;27.30;;;;;;5072267;28;20184;-70
2023/10/13 07:48:18;;;;;;;1.43;0.63;;;22.20;28.00;;;;;;5088161;28;20216;-70
2023/10/13 07:51:10;;;;;;;1.77;0.70;;;22.10;29.00;;;;;;5072426;28;20228;-69
2023/10/13 07:53:40;;;;;;;3.50;0.63;;;21.90;30.00;;;;;;5077330;28;20255;-70
2023/10/13 07:56:11;;;;;;;1.27;0.70;;;21.80;30.90;;;;;;5091525;28;20271;-71
2023/10/13 08:01:45;;;;;;;1.90;0.70;;;21.60;34.10;;;;;;5049348;28;20789;-70
2023/10/13 08:04:16;;;;;;;4.43;2.77;;;21.50;35.90;;;;;;5079899;28;20191;-69
2023/10/13 08:06:45;;;;;;;3.50;2.10;;;21.40;36.00;;;;;;5091995;28;20679;-69
2023/10/13 08:12:36;;;;;;;3.13;1.60;;;21.30;38.50;;;;;;5091541;28;20189;-69
2023/10/13 08:15:21;;;;;;;0.83;0.57;;;21.20;40.10;;;;;;5104267;28;20205;-70
2023/10/13 08:17:52;;;;;;;3.93;2.30;;;21.10;39.80;;;;;;5070704;28;20180;-69
2023/10/13 08:20:22;;;;;;;2.13;1.10;;;21.00;41.40;;;;;;5071914;28;20904;-68
2023/10/13 08:23:13;;;;;;;1.30;0.63;;;20.90;42.00;;;;;;5071549;28;20210;-69
2023/10/13 08:31:25;;;;;;;3.87;0.97;;;20.70;47.40;;;;;;5091501;28;20770;-69
2023/10/13 08:34:06;;;;;;;2.07;0.87;;;20.70;48.80;;;;;;5092052;28;20187;-69
2023/10/13 08:36:38;;;;;;;1.43;0.80;;;20.60;50.30;;;;;;5091077;28;20175;-68
2023/10/13 08:39:22;;;;;;;4.00;0.90;;;20.50;51.10;;;;;;5092149;28;20175;-69
2023/10/13 08:42:11;;;;;;;2.70;1.27;;;20.40;52.50;;;;;;5092011;28;20194;-69
2023/10/13 08:44:45;;;;;;;4.53;0.90;;;20.40;54.40;;;;;;5091365;28;20179;-69
2023/10/13 08:47:19;;;;;;;1.43;0.63;;;20.30;57.40;;;;;;5090691;28;20267;-70
2023/10/13 08:49:52;;;;;;;2.03;1.00;;;20.20;58.80;;;;;;5091899;28;20205;-69
2023/10/13 08:56:01;;;;;;;2.07;0.87;;;20.10;62.00;;;;;;5091773;28;20198;-69
2023/10/13 08:58:13;;;;;;;6.00;1.07;;;20.10;63.60;;;;;;5090478;28;20243;-70
2023/10/13 09:01:11;;;;;;;4.43;1.10;;;20.00;67.60;;;;;;5093058;28;20173;-69
2023/10/13 09:03:42;;;;;;;1.07;0.80;;;19.90;68.20;;;;;;5091950;28;20297;-69
2023/10/13 09:06:19;;;;;;;2.17;0.90;;;19.80;70.70;;;;;;5091046;28;20183;-69
2023/10/13 09:09:07;;;;;;;3.07;1.20;;;19.80;71.70;;;;;;5091876;28;20217;-70
2023/10/13 09:12:04;;;;;;;4.30;0.83;;;19.70;74.00;;;;;;5093115;28;20183;-69
2023/10/13 09:14:37;;;;;;;1.53;0.83;;;19.70;74.70;;;;;;5092740;28;20198;-69
2023/10/13 09:19:48;;;;;;;1.90;0.80;;;19.60;78.60;;;;;;5093199;28;20183;-71
2023/10/13 09:22:38;;;;;;;2.60;0.70;;;19.60;81.40;;;;;;5093394;28;20538;-70
2023/10/13 09:25:06;;;;;;;0.80;0.60;;;19.60;81.90;;;;;;5092902;28;20725;-69
2023/10/13 09:27:37;;;;;;;4.27;0.93;;;19.50;82.60;;;;;;5092884;28;20546;-69
2023/10/13 09:30:23;;;;;;;3.90;0.87;;;19.50;85.20;;;;;;5093115;28;20648;-70
2023/10/13 09:33:09;;;;;;;2.73;0.97;;;19.50;86.70;;;;;;5093109;28;20186;-70
2023/10/13 09:35:51;;;;;;;3.40;0.80;;;19.50;88.00;;;;;;5093118;28;20220;-70
2023/10/13 09:38:20;;;;;;;2.47;0.87;;;19.50;90.00;;;;;;5070643;28;20217;-69
2023/10/13 09:40:52;;;;;;;2.17;0.90;;;19.50;90.50;;;;;;5091454;28;20209;-69
2023/10/13 09:43:21;;;;;;;3.17;1.13;;;19.40;91.50;;;;;;5092798;28;20188;-70
2023/10/13 09:46:02;;;;;;;3.13;1.10;;;19.40;92.70;;;;;;5093039;28;20171;-69
2023/10/13 09:48:45;;;;;;;4.07;0.87;;;19.40;93.30;;;;;;5093002;28;20294;-69
2023/10/13 09:51:19;;;;;;;3.33;0.70;;;19.30;93.90;;;;;;5096749;28;20207;-69
2023/10/13 09:54:06;;;;;;;3.60;0.90;;;19.30;94.80;;;;;;5096684;28;20629;-69
2023/10/13 09:57:12;;;;;;;2.37;0.70;;;19.20;95.30;;;;;;5095353;28;20663;-69
2023/10/13 10:00:26;;;;;;;4.37;0.70;;;19.10;96.80;;;;;;5085380;28;20194;-69
2023/10/13 10:03:04;;;;;;;1.70;0.70;;;19.00;98.50;;;;;;5096544;28;20233;-69
2023/10/13 10:05:35;;;;;;;2.80;1.00;;;18.80;99.90;;;;;;5095547;28;20275;-69
2023/10/13 10:08:04;;;;;;;4.53;0.80;;;18.70;99.90;;;;;;5096150;28;20821;-69
2023/10/13 10:11:00;;;;;;;3.60;1.17;;;18.60;99.90;;;;;;5092779;28;20674;-70
2023/10/13 10:13:43;;;;;;;1.10;0.50;;;18.50;99.90;;;;;;5096331;28;20220;-69
2023/10/13 10:16:19;;;;;;;6.33;1.10;;;18.40;99.90;;;;;;5096188;28;20203;-69
2023/10/13 10:18:47;;;;;;;2.97;0.90;;;18.30;99.90;;;;;;5096183;28;20171;-69
2023/10/13 10:21:16;;;;;;;1.93;0.80;;;18.20;99.90;;;;;;5096180;28;20262;-70
2023/10/13 10:23:53;;;;;;;1.87;0.60;;;18.00;99.90;;;;;;5096144;28;20201;-69
2023/10/13 10:26:21;;;;;;;1.77;1.00;;;18.00;99.90;;;;;;5095772;28;20232;-69
2023/10/13 10:28:49;;;;;;;3.57;0.90;;;17.90;99.90;;;;;;5095754;28;20219;-69
2023/10/13 10:31:19;;;;;;;2.53;0.70;;;17.70;99.90;;;;;;5096147;28;20180;-70
2023/10/13 10:33:50;;;;;;;1.47;0.80;;;17.60;99.90;;;;;;5095778;28;20179;-70
2023/10/13 10:36:42;;;;;;;2.00;0.80;;;17.60;99.90;;;;;;5095852;28;20228;-70
2023/10/13 10:39:11;;;;;;;1.03;0.63;;;17.60;99.90;;;;;;5095650;28;20668;-69
2023/10/13 10:42:15;;;;;;;4.23;0.90;;;17.70;99.90;;;;;;5095991;28;20636;-70
2023/10/13 10:44:47;;;;;;;2.87;1.07;;;17.70;99.90;;;;;;5093528;28;20205;-70
2023/10/13 10:47:31;;;;;;;4.07;1.20;;;17.60;99.90;;;;;;5095769;28;20179;-69
2023/10/13 10:50:19;;;;;;;5.20;1.57;;;17.60;99.90;;;;;;5095567;28;20291;-70
2023/10/13 10:52:47;;;;;;;5.23;1.10;;;17.50;99.90;;;;;;5092693;28;20192;-69
2023/10/13 10:55:22;;;;;;;2.23;0.90;;;17.50;99.90;;;;;;5075115;28;20191;-70
2023/10/13 10:58:05;;;;;;;2.87;1.10;;;17.40;99.90;;;;;;5076533;28;20183;-70
2023/10/13 11:00:50;;;;;;;3.37;1.50;;;17.30;99.90;;;;;;5093197;28;20218;-70
2023/10/13 11:03:18;;;;;;;2.50;1.57;;;17.20;99.90;;;;;;5093743;28;20183;-70
2023/10/13 11:05:46;;;;;;;3.90;1.33;;;17.10;99.90;;;;;;5094626;28;20242;-69
2023/10/13 11:08:37;;;;;;;4.53;1.30;;;17.10;99.90;;;;;;5094947;28;20560;-71
2023/10/13 11:11:17;;;;;;;1.43;1.10;;;17.10;99.90;;;;;;5095063;28;20205;-70
2023/10/13 11:13:51;;;;;;;6.00;1.23;;;17.10;99.90;;;;;;5089066;28;20214;-69
2023/10/13 11:16:25;;;;;;;4.63;0.90;;;17.00;99.90;;;;;;5094460;28;20251;-69
2023/10/13 11:19:05;;;;;;;2.00;1.00;;;17.00;99.90;;;;;;5094523;28;20276;-69
2023/10/13 11:21:32;;;;;;;4.27;1.20;;;17.00;99.90;;;;;;5081183;28;20199;-69
2023/10/13 11:24:08;;;;;;;4.50;1.10;;;17.00;99.90;;;;;;5094820;28;20304;-69
2023/10/13 11:26:54;;;;;;;2.93;1.27;;;16.90;99.90;;;;;;5094609;28;20281;-69
2023/10/13 11:29:33;;;;;;;4.53;1.20;;;16.90;99.90;;;;;;5094474;28;20579;-69
2023/10/13 11:32:02;;;;;;;4.23;1.10;;;16.80;99.90;;;;;;5094702;28;20190;-69
2023/10/13 11:34:39;;;;;;;2.73;0.90;;;16.80;99.90;;;;;;5094914;28;20186;-70
2023/10/13 11:39:53;;;;;;;3.57;1.20;;;16.60;99.90;;;;;;5094554;28;20303;-70
2023/10/13 11:42:21;;;;;;;1.73;1.10;;;16.50;99.90;;;;;;5094260;28;20170;-70
2023/10/13 11:45:01;;;;;;;2.97;1.20;;;16.40;99.90;;;;;;5094417;28;20206;-69
2023/10/13 11:47:47;;;;;;;2.77;1.10;;;16.30;99.90;;;;;;5094330;28;20179;-70
2023/10/13 11:50:31;;;;;;;1.80;1.27;;;16.20;99.90;;;;;;5083769;28;20201;-69
2023/10/13 11:53:07;;;;;;;5.20;1.60;;;16.10;99.90;;;;;;5094524;28;20671;-69
2023/10/13 11:55:35;;;;;;;3.27;1.10;;;16.00;99.90;;;;;;5093977;28;20201;-69
2023/10/13 11:58:05;;;;;;;1.90;1.10;;;15.90;99.90;;;;;;5094007;28;20190;-69
2023/10/13 12:07:14;;;;;;;4.03;1.30;;;15.90;99.90;;;;;;5094340;28;20198;-70
2023/10/13 12:11:54;;;;;;;3.17;1.37;;;15.80;99.90;;;;;;5084089;28;20648;-70
2023/10/13 12:14:29;;;;;;;4.10;1.60;;;15.70;99.90;;;;;;5093204;28;20530;-70
2023/10/13 12:17:03;;;;;;;2.83;1.30;;;15.60;99.90;;;;;;5093710;28;20183;-70
2023/10/13 12:19:31;;;;;;;3.10;1.23;;;15.60;99.90;;;;;;5093453;28;20182;-69
2023/10/13 12:22:05;;;;;;;2.13;0.93;;;15.50;99.90;;;;;;5093671;28;20177;-70
2023/10/13 12:27:20;;;;;;;4.30;1.10;;;15.50;99.90;;;;;;5093266;28;20179;-69
2023/10/13 12:29:52;;;;;;;4.60;1.33;;;15.40;99.90;;;;;;5093669;28;20271;-69
2023/10/13 12:32:25;;;;;;;3.50;1.50;;;15.40;99.90;;;;;;5093378;28;20183;-70
2023/10/13 12:54:13;;;;;;;4.50;1.80;;;15.10;99.90;;;;;;5093184;28;20183;-69
2023/10/13 12:56:41;;;;;;;5.43;1.83;;;15.10;99.90;;;;;;5093452;28;20654;-69
2023/10/13 12:59:13;;;;;;;3.53;1.30;;;15.00;99.90;;;;;;5092878;28;20212;-69
2023/10/13 13:01:44;;;;;;;3.63;1.60;;;15.00;99.90;;;;;;5091604;28;20566;-69
2023/10/13 13:04:19;;;;;;;2.30;1.30;;;15.00;99.90;;;;;;5093050;28;20671;-69
2023/10/13 13:06:49;;;;;;;5.03;1.30;;;15.00;99.90;;;;;;5092926;28;20281;-69
2023/10/13 13:09:25;;;;;;;8.47;1.43;;;15.00;99.90;;;;;;5092993;28;20215;-69
2023/10/13 13:11:57;;;;;;;2.13;1.30;;;14.90;99.90;;;;;;5092722;28;20236;-69
2023/10/13 13:14:34;;;;;;;4.23;1.30;;;14.90;99.90;;;;;;5092995;28;20632;-69
2023/10/13 13:17:04;;;;;;;3.87;1.53;;;14.90;99.90;;;;;;5091780;28;20175;-69
2023/10/13 13:19:39;;;;;;;4.13;1.53;;;15.30;99.90;;;;;;5093220;28;20266;-69
2023/10/13 13:22:14;;;;;;;3.60;1.40;;;15.40;99.90;;;;;;5092795;28;20182;-69
2023/10/13 13:24:46;;;;;;;4.67;1.63;;;15.30;99.90;;;;;;5095178;28;20223;-69
2023/10/13 13:27:23;;;;;;;2.70;1.33;;;15.20;99.90;;;;;;5096785;28;20178;-69
2023/10/13 13:29:51;;;;;;;2.07;1.30;;;15.10;99.90;;;;;;5097055;28;20281;-69
2023/10/13 13:32:24;;;;;;;1.77;1.20;;;15.10;99.90;;;;;;5096710;28;20182;-70
2023/10/13 13:35:04;;;;;;;3.00;1.03;;;15.00;99.90;;;;;;5096741;28;20241;-69
2023/10/13 13:37:32;;;;;;;4.23;1.67;;;15.00;99.90;;;;;;5096547;28;20261;-69
2023/10/13 13:40:14;;;;;;;3.17;1.17;;;15.00;99.90;;;;;;5096663;28;20175;-69
2023/10/13 13:42:45;;;;;;;2.87;1.00;;;15.20;99.90;;;;;;5096670;28;20187;-69
2023/10/13 13:45:31;;;;;;;2.93;1.00;;;15.40;99.90;;;;;;5096474;28;20310;-69
2023/10/13 13:47:59;;;;;;;2.57;0.90;;;15.80;99.90;;;;;;5096800;28;20548;-69
2023/10/13 13:50:38;;;;;;;3.53;0.83;;;16.00;99.90;;;;;;5096639;28;20249;-69
2023/10/13 13:53:09;;;;;;;3.90;0.80;;;16.30;99.90;;;;;;5096498;28;20238;-69
2023/10/13 13:55:39;;;;;;;2.17;0.60;;;16.40;99.90;;;;;;5096205;28;20281;-69
2023/10/13 13:58:10;;;;;;;1.27;0.63;;;16.50;99.90;;;;;;5096432;28;20190;-69
2023/10/13 14:00:48;;;;;;;4.00;0.73;;;16.50;99.90;;;;;;5095222;28;20229;-69
2023/10/13 14:03:31;;;;;;;0.60;0.50;;;16.50;99.90;;;;;;5096444;28;20270;-69
2023/10/13 14:06:00;;;;;;;3.27;0.90;;;16.60;99.90;;;;;;5096734;28;20178;-69
2023/10/13 14:08:28;;;;;;;0.97;0.63;;;16.60;99.90;;;;;;5096322;28;20221;-69
2023/10/13 14:11:17;;;;;;;2.23;0.70;;;16.60;99.90;;;;;;5096323;28;20188;-68
2023/10/13 14:13:55;;;;;;;2.43;0.70;;;16.60;99.90;;;;;;5095996;28;20179;-69
2023/10/13 14:16:23;;;;;;;1.77;0.83;;;16.60;99.90;;;;;;5096120;28;20192;-69
2023/10/13 14:18:52;;;;;;;4.03;1.07;;;16.60;99.90;;;;;;5096245;28;20211;-69
2023/10/13 14:21:24;;;;;;;1.57;0.67;;;16.70;99.90;;;;;;5096495;28;20175;-69
2023/10/13 14:23:55;;;;;;;1.60;0.70;;;16.60;99.90;;;;;;5095918;28;20638;-69
2023/10/13 14:26:25;;;;;;;2.03;0.67;;;16.60;99.90;;;;;;5096129;28;20692;-69
2023/10/13 14:29:05;;;;;;;3.53;0.70;;;16.50;99.90;;;;;;5096161;28;20227;-69
2023/10/13 14:31:36;;;;;;;2.10;0.50;;;16.50;99.90;;;;;;5095790;28;20181;-69
2023/10/13 14:34:05;;;;;;;1.47;0.70;;;16.50;99.90;;;;;;5095808;28;20329;-69
2023/10/13 14:36:35;;;;;;;0.97;0.70;;;16.50;99.90;;;;;;5095615;28;20179;-69
2023/10/13 14:39:10;;;;;;;2.27;0.73;;;16.40;99.90;;;;;;5095888;28;20679;-69
2023/10/13 14:41:38;;;;;;;1.60;0.77;;;16.40;99.90;;;;;;5095959;28;20178;-69
2023/10/13 14:44:06;;;;;;;1.73;0.70;;;16.40;99.90;;;;;;5095734;28;20240;-69
2023/10/13 14:46:40;;;;;;;2.03;0.80;;;16.30;99.90;;;;;;5095765;28;20255;-69
2023/10/13 14:49:08;;;;;;;2.10;0.80;;;16.30;99.90;;;;;;5095602;28;20260;-69
2023/10/13 14:51:39;;;;;;;1.63;0.60;;;16.10;99.90;;;;;;5095580;28;20191;-69
2023/10/13 14:54:07;;;;;;;2.37;0.80;;;16.10;99.90;;;;;;5095644;28;20636;-69
2023/10/13 14:56:35;;;;;;;2.83;0.83;;;15.90;99.90;;;;;;5095852;28;20175;-69
2023/10/13 14:59:04;;;;;;;1.60;0.70;;;15.80;99.90;;;;;;5095378;28;20168;-70
2023/10/13 15:01:32;;;;;;;1.50;0.70;;;15.70;99.90;;;;;;5095208;28;20663;-68
2023/10/13 15:04:00;;;;;;;2.73;0.80;;;15.50;99.90;;;;;;5095129;28;20183;-69
2023/10/13 15:06:32;;;;;;;1.90;0.60;;;15.40;99.90;;;;;;5095471;28;20266;-69
2023/10/13 15:09:00;;;;;;;1.60;0.80;;;15.20;99.90;;;;;;5095293;28;20202;-69
2023/10/13 15:11:38;;;;;;;1.73;0.60;;;15.10;99.90;;;;;;5095281;28;20171;-69
2023/10/13 15:14:09;;;;;;;2.17;1.10;;;15.10;99.90;;;;;;5094928;28;20190;-69
2023/10/13 15:16:37;;;;;;;1.37;0.67;;;15.00;99.90;;;;;;5095307;28;20198;-69
2023/10/13 15:19:06;;;;;;;2.33;0.60;;;14.90;99.90;;;;;;5095279;28;20558;-69
2023/10/13 15:21:39;;;;;;;1.03;0.70;;;14.80;99.90;;;;;;5094880;28;20209;-69
2023/10/13 15:24:14;;;;;;;1.13;0.70;;;14.70;99.90;;;;;;5094585;28;20577;-69
2023/10/13 15:26:47;;;;;;;3.13;0.60;;;14.60;99.90;;;;;;5094963;28;20175;-69
2023/10/13 15:29:25;;;;;;;3.40;0.70;;;14.50;99.90;;;;;;5095069;28;20257;-70
2023/10/13 15:34:27;;;;;;;1.23;0.80;;;14.20;99.90;;;;;;5095052;28;20655;-69
2023/10/13 15:36:57;;;;;;;3.83;0.80;;;14.20;99.90;;;;;;5094807;28;20171;-69
2023/10/13 15:39:28;;;;;;;2.50;1.00;;;14.10;99.90;;;;;;5094733;28;20231;-69
2023/10/13 15:41:59;;;;;;;1.40;0.70;;;14.10;99.90;;;;;;5094733;28;20211;-68
2023/10/13 15:44:31;;;;;;;1.87;0.70;;;14.20;99.90;;;;;;5094657;28;20187;-70
2023/10/13 15:46:59;;;;;;;2.77;0.90;;;14.20;99.90;;;;;;5093944;28;20327;-70
2023/10/13 15:49:29;;;;;;;1.53;0.80;;;14.20;99.90;;;;;;5094643;28;20313;-70
2023/10/13 15:51:57;;;;;;;1.00;0.60;;;14.10;99.90;;;;;;5094629;28;20171;-70
2023/10/13 15:54:25;;;;;;;2.00;0.70;;;14.10;99.90;;;;;;5094437;28;20540;-70
2023/10/13 15:56:54;;;;;;;2.07;0.83;;;14.10;99.90;;;;;;5094522;28;20176;-69
2023/10/13 15:59:23;;;;;;;2.63;1.10;;;14.10;99.90;;;;;;5094359;28;20182;-68
2023/10/13 16:01:54;;;;;;;1.73;0.70;;;14.00;99.90;;;;;;5094314;28;20182;-69
2023/10/13 16:04:22;;;;;;;1.03;0.77;;;13.90;99.90;;;;;;5093774;28;20193;-70
2023/10/13 16:06:53;;;;;;;2.23;0.67;;;13.80;99.90;;;;;;5094439;28;20581;-69
2023/10/13 16:09:25;;;;;;;3.60;0.80;;;13.70;99.90;;;;;;5094241;28;20257;-68
2023/10/13 16:11:54;;;;;;;2.10;0.97;;;13.70;99.90;;;;;;5093829;28;20631;-69
2023/10/13 16:14:22;;;;;;;1.90;0.83;;;13.60;99.90;;;;;;5093892;28;20187;-70
2023/10/13 16:16:54;;;;;;;1.67;0.87;;;13.60;99.90;;;;;;5093964;28;20723;-69
2023/10/13 16:19:25;;;;;;;3.03;1.03;;;13.50;99.90;;;;;;5094162;28;20228;-69
2023/10/13 16:21:54;;;;;;;1.67;0.70;;;13.40;99.90;;;;;;5093756;28;20175;-69
2023/10/13 16:24:22;;;;;;;2.97;0.90;;;13.30;99.90;;;;;;5093612;28;20214;-69
2023/10/13 16:26:55;;;;;;;2.70;0.60;;;13.30;99.90;;;;;;5094384;28;20186;-71
2023/10/13 16:29:23;;;;;;;1.10;0.63;;;13.20;99.90;;;;;;5093764;28;20678;-69
2023/10/13 16:31:51;;;;;;;1.77;0.70;;;13.20;99.90;;;;;;5093663;28;20186;-70
2023/10/13 16:34:19;;;;;;;3.60;0.97;;;13.10;99.90;;;;;;5093422;28;20186;-69
2023/10/13 16:36:54;;;;;;;2.00;0.70;;;13.10;99.90;;;;;;5094176;28;20166;-69
2023/10/13 16:39:22;;;;;;;0.60;0.60;;;13.10;99.90;;;;;;5093676;28;20165;-69
2023/10/13 16:41:51;;;;;;;1.67;0.80;;;13.10;99.90;;;;;;5093586;28;20182;-70
2023/10/13 16:44:22;;;;;;;3.57;1.00;;;13.10;99.90;;;;;;5093166;28;20195;-69
2023/10/13 16:46:49;;;;;;;1.30;0.60;;;13.00;99.90;;;;;;5093744;28;20186;-69
2023/10/13 16:49:17;;;;;;;1.60;0.80;;;13.00;99.90;;;;;;5093500;28;20359;-69
2023/10/13 16:51:45;;;;;;;2.37;0.80;;;13.00;99.90;;;;;;5093420;28;20185;-69